sensor_id;sensor_type;location;lat;lon;timestamp;pressure;altitude;pressure_sealevel;temperature;humidity
40918;BME280;26644;50.248;19.032;2022-11-15T00:01:08;98440.03;;;5.34;87.20
40918;BME280;26644;50.248;19.032;2022-11-15T00:02:34;98457.47;;;5.50;87.47
40918;BME280;26644;50.248;19.032;2022-11-15T00:03:55;98421.13;;;5.27;87.00
40918;BME280;26644;50.248;19.032;2022-11-15T00:05:16;98436.56;;;5.39;87.52
40918;BME280;26644;50.248;19.032;2022-11-15T00:06:36;98460.75;;;5.52;86.88
40918;BME280;26644;50.248;19.032;2022-11-15T00:07:57;98452.34;;;5.54;87.28
40918;BME280;26644;50.248;19.032;2022-11-15T00:09:16;98419.31;;;5.33;87.28
40918;BME280;26644;50.248;19.032;2022-11-15T00:10:37;98437.72;;;5.43;87.00
40918;BME280;26644;50.248;19.032;2022-11-15T00:11:58;98403.63;;;5.23;86.87
40918;BME280;26644;50.248;19.032;2022-11-15T00:13:20;98412.28;;;5.20;86.83
40918;BME280;26644;50.248;19.032;2022-11-15T00:14:40;98436.56;;;5.39;86.55
40918;BME280;26644;50.248;19.032;2022-11-15T00:16:01;98404.34;;;5.19;86.73
40918;BME280;26644;50.248;19.032;2022-11-15T00:17:22;98420.88;;;5.29;86.74
40918;BME280;26644;50.248;19.032;2022-11-15T00:18:43;98443.91;;;5.38;86.93
40918;BME280;26644;50.248;19.032;2022-11-15T00:20:05;98389.66;;;5.03;86.64
40918;BME280;26644;50.248;19.032;2022-11-15T00:21:25;98422.75;;;5.11;86.63
40918;BME280;26644;50.248;19.032;2022-11-15T00:22:47;98435.59;;;5.16;87.02
40918;BME280;26644;50.248;19.032;2022-11-15T00:24:07;98418.75;;;5.02;87.10
40918;BME280;26644;50.248;19.032;2022-11-15T00:25:28;98439.19;;;5.17;87.01
40918;BME280;26644;50.248;19.032;2022-11-15T00:26:48;98421.00;;;5.05;87.26
40918;BME280;26644;50.248;19.032;2022-11-15T00:28:09;98442.16;;;5.15;86.94
40918;BME280;26644;50.248;19.032;2022-11-15T00:29:31;98436.34;;;5.11;87.04
40918;BME280;26644;50.248;19.032;2022-11-15T00:30:52;98420.75;;;5.07;87.30
40918;BME280;26644;50.248;19.032;2022-11-15T00:32:12;98398.22;;;4.94;87.10
40918;BME280;26644;50.248;19.032;2022-11-15T00:33:34;98430.75;;;5.18;87.20
40918;BME280;26644;50.248;19.032;2022-11-15T00:34:54;98408.69;;;5.03;86.95
40918;BME280;26644;50.248;19.032;2022-11-15T00:36:16;98437.75;;;5.14;86.84
40918;BME280;26644;50.248;19.032;2022-11-15T00:37:35;98388.53;;;4.87;86.72
40918;BME280;26644;50.248;19.032;2022-11-15T00:38:57;98417.91;;;5.02;86.69
40918;BME280;26644;50.248;19.032;2022-11-15T00:40:18;98429.06;;;5.00;86.79
40918;BME280;26644;50.248;19.032;2022-11-15T00:41:38;98415.25;;;4.90;87.15
40918;BME280;26644;50.248;19.032;2022-11-15T00:42:59;98419.78;;;4.84;87.17
40918;BME280;26644;50.248;19.032;2022-11-15T00:44:19;98372.22;;;4.46;86.64
40918;BME280;26644;50.248;19.032;2022-11-15T00:45:42;98347.69;;;4.29;87.17
40918;BME280;26644;50.248;19.032;2022-11-15T00:47:03;98387.22;;;4.49;87.29
40918;BME280;26644;50.248;19.032;2022-11-15T00:48:24;98407.09;;;4.61;87.43
40918;BME280;26644;50.248;19.032;2022-11-15T00:49:45;98389.25;;;4.41;87.75
40918;BME280;26644;50.248;19.032;2022-11-15T00:51:06;98410.19;;;4.41;87.71
40918;BME280;26644;50.248;19.032;2022-11-15T00:52:26;98400.16;;;4.30;88.46
40918;BME280;26644;50.248;19.032;2022-11-15T00:53:47;98370.66;;;3.98;89.10
40918;BME280;26644;50.248;19.032;2022-11-15T00:55:09;98397.34;;;4.13;89.48
40918;BME280;26644;50.248;19.032;2022-11-15T00:56:35;98370.44;;;3.87;89.69
40918;BME280;26644;50.248;19.032;2022-11-15T00:57:55;98399.69;;;4.09;90.21
40918;BME280;26644;50.248;19.032;2022-11-15T00:59:15;98398.28;;;4.06;90.45
40918;BME280;26644;50.248;19.032;2022-11-15T01:00:37;98399.38;;;4.05;90.61
40918;BME280;26644;50.248;19.032;2022-11-15T01:01:59;98343.41;;;3.69;91.09
40918;BME280;26644;50.248;19.032;2022-11-15T01:03:20;98391.22;;;4.05;91.21
40918;BME280;26644;50.248;19.032;2022-11-15T01:04:41;98384.13;;;4.04;91.24
40918;BME280;26644;50.248;19.032;2022-11-15T01:06:03;98400.31;;;4.11;91.07
40918;BME280;26644;50.248;19.032;2022-11-15T01:07:24;98395.91;;;4.10;90.60
40918;BME280;26644;50.248;19.032;2022-11-15T01:08:45;98389.31;;;4.06;90.80
40918;BME280;26644;50.248;19.032;2022-11-15T01:10:06;98399.69;;;4.09;90.59
40918;BME280;26644;50.248;19.032;2022-11-15T01:11:29;98392.03;;;4.06;90.69
40918;BME280;26644;50.248;19.032;2022-11-15T01:12:49;98392.63;;;4.08;90.65
40918;BME280;26644;50.248;19.032;2022-11-15T01:14:10;98388.25;;;4.07;90.26
40918;BME280;26644;50.248;19.032;2022-11-15T01:15:31;98375.50;;;3.95;89.83
40918;BME280;26644;50.248;19.032;2022-11-15T01:16:52;98344.13;;;3.76;89.98
40918;BME280;26644;50.248;19.032;2022-11-15T01:18:14;98294.09;;;3.48;89.69
40918;BME280;26644;50.248;19.032;2022-11-15T01:19:35;98362.03;;;3.89;89.58
40918;BME280;26644;50.248;19.032;2022-11-15T01:20:55;98383.06;;;3.93;89.38
40918;BME280;26644;50.248;19.032;2022-11-15T01:22:17;98362.16;;;3.82;89.51
40918;BME280;26644;50.248;19.032;2022-11-15T01:23:38;98384.13;;;3.92;89.57
40918;BME280;26644;50.248;19.032;2022-11-15T01:25:00;98366.66;;;3.76;90.09
40918;BME280;26644;50.248;19.032;2022-11-15T01:26:22;98339.41;;;3.59;89.58
40918;BME280;26644;50.248;19.032;2022-11-15T01:27:45;98376.59;;;3.83;90.01
40918;BME280;26644;50.248;19.032;2022-11-15T01:29:05;98378.47;;;3.82;90.13
40918;BME280;26644;50.248;19.032;2022-11-15T01:30:26;98380.25;;;3.76;89.79
40918;BME280;26644;50.248;19.032;2022-11-15T01:31:47;98347.31;;;3.61;90.07
40918;BME280;26644;50.248;19.032;2022-11-15T01:33:08;98368.56;;;3.76;90.40
40918;BME280;26644;50.248;19.032;2022-11-15T01:34:30;98349.69;;;3.69;90.73
40918;BME280;26644;50.248;19.032;2022-11-15T01:35:51;98325.94;;;3.53;90.67
40918;BME280;26644;50.248;19.032;2022-11-15T01:37:11;98359.69;;;3.81;90.82
40918;BME280;26644;50.248;19.032;2022-11-15T01:38:33;98365.72;;;3.83;91.06
40918;BME280;26644;50.248;19.032;2022-11-15T01:39:54;98362.66;;;3.79;90.34
40918;BME280;26644;50.248;19.032;2022-11-15T01:41:16;98363.13;;;3.76;90.46
40918;BME280;26644;50.248;19.032;2022-11-15T01:42:38;98366.31;;;3.73;90.59
40918;BME280;26644;50.248;19.032;2022-11-15T01:46:04;98299.72;;;3.35;91.07
40918;BME280;26644;50.248;19.032;2022-11-15T01:47:37;98353.78;;;3.72;91.71
40918;BME280;26644;50.248;19.032;2022-11-15T01:49:11;98324.41;;;3.57;91.49
40918;BME280;26644;50.248;19.032;2022-11-15T01:50:35;98355.56;;;3.78;91.45
40918;BME280;26644;50.248;19.032;2022-11-15T01:51:57;98352.84;;;3.78;91.27
40918;BME280;26644;50.248;19.032;2022-11-15T01:53:23;98349.66;;;3.81;91.18
40918;BME280;26644;50.248;19.032;2022-11-15T01:54:50;98345.88;;;3.82;91.64
40918;BME280;26644;50.248;19.032;2022-11-15T01:56:20;98339.16;;;3.85;91.54
40918;BME280;26644;50.248;19.032;2022-11-15T01:57:47;98340.31;;;3.89;92.02
40918;BME280;26644;50.248;19.032;2022-11-15T01:59:11;98342.34;;;3.93;91.79
40918;BME280;26644;50.248;19.032;2022-11-15T02:00:33;98310.81;;;3.81;91.51
40918;BME280;26644;50.248;19.032;2022-11-15T02:01:56;98319.88;;;3.86;90.93
40918;BME280;26644;50.248;19.032;2022-11-15T02:03:16;98335.59;;;3.96;91.00
40918;BME280;26644;50.248;19.032;2022-11-15T02:04:40;98335.13;;;3.99;90.97
40918;BME280;26644;50.248;19.032;2022-11-15T02:06:05;98330.50;;;4.00;90.85
40918;BME280;26644;50.248;19.032;2022-11-15T02:07:26;98333.81;;;4.02;91.26
40918;BME280;26644;50.248;19.032;2022-11-15T02:08:49;98339.84;;;4.04;91.23
40918;BME280;26644;50.248;19.032;2022-11-15T02:10:13;98297.34;;;3.86;90.64
40918;BME280;26644;50.248;19.032;2022-11-15T02:11:40;98326.81;;;4.06;90.92
40918;BME280;26644;50.248;19.032;2022-11-15T02:13:02;98331.78;;;4.09;90.97
40918;BME280;26644;50.248;19.032;2022-11-15T02:14:27;98329.91;;;4.09;91.12
40918;BME280;26644;50.248;19.032;2022-11-15T02:15:58;98315.25;;;4.10;91.10
40918;BME280;26644;50.248;19.032;2022-11-15T02:17:47;98265.25;;;3.71;90.83
40918;BME280;26644;50.248;19.032;2022-11-15T02:19:46;98326.00;;;4.05;90.42
40918;BME280;26644;50.248;19.032;2022-11-15T02:21:39;98320.47;;;4.00;90.41
40918;BME280;26644;50.248;19.032;2022-11-15T02:23:56;98325.31;;;3.98;90.54
40918;BME280;26644;50.248;19.032;2022-11-15T02:25:57;98309.84;;;3.99;90.74
40918;BME280;26644;50.248;19.032;2022-11-15T02:27:57;98288.94;;;3.87;90.90
40918;BME280;26644;50.248;19.032;2022-11-15T02:29:53;98307.59;;;3.95;90.95
40918;BME280;26644;50.248;19.032;2022-11-15T02:31:32;98311.41;;;3.94;91.12
40918;BME280;26644;50.248;19.032;2022-11-15T02:33:10;98275.88;;;3.72;91.22
40918;BME280;26644;50.248;19.032;2022-11-15T02:34:50;98310.06;;;3.97;91.28
40918;BME280;26644;50.248;19.032;2022-11-15T02:36:26;98279.16;;;3.74;91.41
40918;BME280;26644;50.248;19.032;2022-11-15T02:37:58;98288.94;;;3.87;91.42
40918;BME280;26644;50.248;19.032;2022-11-15T02:39:30;98304.63;;;3.97;91.48
40918;BME280;26644;50.248;19.032;2022-11-15T02:41:04;98308.88;;;3.93;91.08
40918;BME280;26644;50.248;19.032;2022-11-15T02:42:35;98303.94;;;3.90;90.68
40918;BME280;26644;50.248;19.032;2022-11-15T02:44:34;98295.31;;;3.81;90.86
40918;BME280;26644;50.248;19.032;2022-11-15T02:46:06;98289.69;;;3.71;90.86
40918;BME280;26644;50.248;19.032;2022-11-15T02:47:41;98302.91;;;3.79;90.88
40918;BME280;26644;50.248;19.032;2022-11-15T02:49:04;98287.31;;;3.74;91.79
40918;BME280;26644;50.248;19.032;2022-11-15T02:50:28;98291.31;;;3.84;91.84
40918;BME280;26644;50.248;19.032;2022-11-15T02:51:55;98237.66;;;3.50;91.52
40918;BME280;26644;50.248;19.032;2022-11-15T02:53:17;98294.28;;;3.82;91.27
40918;BME280;26644;50.248;19.032;2022-11-15T02:54:37;98241.53;;;3.54;91.73
40918;BME280;26644;50.248;19.032;2022-11-15T02:55:58;98290.25;;;3.85;91.76
40918;BME280;26644;50.248;19.032;2022-11-15T02:57:27;98291.91;;;3.86;91.79
40918;BME280;26644;50.248;19.032;2022-11-15T02:59:27;98240.25;;;3.57;91.50
40918;BME280;26644;50.248;19.032;2022-11-15T03:01:11;98272.81;;;3.69;91.38
40918;BME280;26644;50.248;19.032;2022-11-15T03:03:03;98267.50;;;3.74;91.41
40918;BME280;26644;50.248;19.032;2022-11-15T03:04:44;98283.41;;;3.82;91.06
40918;BME280;26644;50.248;19.032;2022-11-15T03:06:24;98269.41;;;3.73;91.21
40918;BME280;26644;50.248;19.032;2022-11-15T03:08:01;98250.59;;;3.72;91.55
40918;BME280;26644;50.248;19.032;2022-11-15T03:09:35;98259.94;;;3.76;91.15
40918;BME280;26644;50.248;19.032;2022-11-15T03:11:09;98276.09;;;3.83;90.68
40918;BME280;26644;50.248;19.032;2022-11-15T03:12:40;98277.88;;;3.77;90.85
40918;BME280;26644;50.248;19.032;2022-11-15T03:14:17;98260.41;;;3.61;90.51
40918;BME280;26644;50.248;19.032;2022-11-15T03:15:49;98277.88;;;3.77;90.96
40918;BME280;26644;50.248;19.032;2022-11-15T03:17:24;98262.19;;;3.67;91.16
40918;BME280;26644;50.248;19.032;2022-11-15T03:18:55;98265.16;;;3.66;91.01
40918;BME280;26644;50.248;19.032;2022-11-15T03:20:20;98279.66;;;3.71;90.51
40918;BME280;26644;50.248;19.032;2022-11-15T03:21:44;98276.69;;;3.73;90.88
40918;BME280;26644;50.248;19.032;2022-11-15T03:23:10;98275.03;;;3.72;90.58
40918;BME280;26644;50.248;19.032;2022-11-15T03:24:36;98282.00;;;3.68;91.09
40918;BME280;26644;50.248;19.032;2022-11-15T03:25:59;98246.16;;;3.54;90.88
40918;BME280;26644;50.248;19.032;2022-11-15T03:27:24;98264.91;;;3.67;90.86
40918;BME280;26644;50.248;19.032;2022-11-15T03:28:55;98203.56;;;3.19;90.63
40918;BME280;26644;50.248;19.032;2022-11-15T03:30:20;98257.38;;;3.57;91.12
40918;BME280;26644;50.248;19.032;2022-11-15T03:31:46;98262.88;;;3.63;90.93
40918;BME280;26644;50.248;19.032;2022-11-15T03:33:11;98251.00;;;3.52;90.76
40918;BME280;26644;50.248;19.032;2022-11-15T03:34:41;98267.25;;;3.64;91.04
40918;BME280;26644;50.248;19.032;2022-11-15T03:36:05;98249.13;;;3.52;91.30
40918;BME280;26644;50.248;19.032;2022-11-15T03:37:33;98261.25;;;3.61;91.47
40918;BME280;26644;50.248;19.032;2022-11-15T03:39:02;98213.50;;;3.37;91.04
40918;BME280;26644;50.248;19.032;2022-11-15T03:40:34;98256.06;;;3.60;90.94
40918;BME280;26644;50.248;19.032;2022-11-15T03:42:11;98250.88;;;3.58;90.75
40918;BME280;26644;50.248;19.032;2022-11-15T03:43:47;98254.19;;;3.60;90.84
40918;BME280;26644;50.248;19.032;2022-11-15T03:45:18;98201.56;;;3.38;91.34
40918;BME280;26644;50.248;19.032;2022-11-15T03:46:48;98226.09;;;3.55;91.46
40918;BME280;26644;50.248;19.032;2022-11-15T03:48:24;98237.75;;;3.67;91.12
40918;BME280;26644;50.248;19.032;2022-11-15T03:49:53;98243.78;;;3.69;91.10
40918;BME280;26644;50.248;19.032;2022-11-15T03:51:19;98234.56;;;3.70;90.82
40918;BME280;26644;50.248;19.032;2022-11-15T03:52:44;98231.03;;;3.70;90.74
40918;BME280;26644;50.248;19.032;2022-11-15T03:54:07;98208.03;;;3.49;90.10
40918;BME280;26644;50.248;19.032;2022-11-15T03:55:27;98231.28;;;3.56;90.45
40918;BME280;26644;50.248;19.032;2022-11-15T03:56:48;98229.88;;;3.54;90.90
40918;BME280;26644;50.248;19.032;2022-11-15T03:58:09;98225.75;;;3.51;90.90
40918;BME280;26644;50.248;19.032;2022-11-15T03:59:30;98230.69;;;3.54;91.01
40918;BME280;26644;50.248;19.032;2022-11-15T04:00:50;98221.47;;;3.55;91.38
40918;BME280;26644;50.248;19.032;2022-11-15T04:02:11;98224.09;;;3.50;91.20
40918;BME280;26644;50.248;19.032;2022-11-15T04:03:32;98199.22;;;3.41;91.40
40918;BME280;26644;50.248;19.032;2022-11-15T04:04:54;98192.03;;;3.35;91.00
40918;BME280;26644;50.248;19.032;2022-11-15T04:06:15;98203.22;;;3.39;91.44
40918;BME280;26644;50.248;19.032;2022-11-15T04:07:37;98217.34;;;3.53;90.98
40918;BME280;26644;50.248;19.032;2022-11-15T04:08:59;98140.03;;;3.03;90.97
40918;BME280;26644;50.248;19.032;2022-11-15T04:10:19;98200.28;;;3.40;90.96
40918;BME280;26644;50.248;19.032;2022-11-15T04:11:39;98208.66;;;3.51;91.14
40918;BME280;26644;50.248;19.032;2022-11-15T04:13:01;98208.84;;;3.49;90.97
40918;BME280;26644;50.248;19.032;2022-11-15T04:14:23;98216.53;;;3.52;90.92
40918;BME280;26644;50.248;19.032;2022-11-15T04:15:44;98202.50;;;3.43;90.75
40918;BME280;26644;50.248;19.032;2022-11-15T04:17:04;98181.28;;;3.40;91.01
40918;BME280;26644;50.248;19.032;2022-11-15T04:18:24;98180.44;;;3.40;90.67
40918;BME280;26644;50.248;19.032;2022-11-15T04:19:46;98199.91;;;3.49;90.69
40918;BME280;26644;50.248;19.032;2022-11-15T04:21:26;98209.31;;;3.58;90.26
40918;BME280;26644;50.248;19.032;2022-11-15T04:23:07;98202.84;;;3.59;90.69
40918;BME280;26644;50.248;19.032;2022-11-15T04:24:48;98200.69;;;3.61;90.67
40918;BME280;26644;50.248;19.032;2022-11-15T04:26:12;98204.81;;;3.64;90.34
40918;BME280;26644;50.248;19.032;2022-11-15T04:27:35;98204.81;;;3.64;90.22
40918;BME280;26644;50.248;19.032;2022-11-15T04:28:56;98201.53;;;3.61;89.58
40918;BME280;26644;50.248;19.032;2022-11-15T04:30:32;98203.16;;;3.63;89.71
40918;BME280;26644;50.248;19.032;2022-11-15T04:31:53;98197.72;;;3.63;89.88
40918;BME280;26644;50.248;19.032;2022-11-15T04:33:14;98200.69;;;3.61;89.68
40918;BME280;26644;50.248;19.032;2022-11-15T04:34:35;98194.34;;;3.55;89.31
40918;BME280;26644;50.248;19.032;2022-11-15T04:35:56;98196.44;;;3.53;89.38
40918;BME280;26644;50.248;19.032;2022-11-15T04:37:36;98196.13;;;3.50;89.67
40918;BME280;26644;50.248;19.032;2022-11-15T04:38:57;98186.81;;;3.46;89.97
40918;BME280;26644;50.248;19.032;2022-11-15T04:40:17;98187.97;;;3.50;90.07
40918;BME280;26644;50.248;19.032;2022-11-15T04:41:38;98185.28;;;3.50;90.30
40918;BME280;26644;50.248;19.032;2022-11-15T04:42:59;98187.50;;;3.53;90.43
40918;BME280;26644;50.248;19.032;2022-11-15T04:44:19;98185.59;;;3.53;90.04
40918;BME280;26644;50.248;19.032;2022-11-15T04:45:40;98186.19;;;3.55;90.22
40918;BME280;26644;50.248;19.032;2022-11-15T04:47:02;98179.94;;;3.55;89.71
40918;BME280;26644;50.248;19.032;2022-11-15T04:48:23;98186.19;;;3.55;89.66
40918;BME280;26644;50.248;19.032;2022-11-15T04:49:43;98191.63;;;3.55;89.62
40918;BME280;26644;50.248;19.032;2022-11-15T04:51:04;98187.84;;;3.56;89.73
40918;BME280;26644;50.248;19.032;2022-11-15T04:52:26;98184.28;;;3.56;89.70
40918;BME280;26644;50.248;19.032;2022-11-15T04:53:48;98184.53;;;3.54;89.16
40918;BME280;26644;50.248;19.032;2022-11-15T04:55:09;98182.66;;;3.55;89.30
40918;BME280;26644;50.248;19.032;2022-11-15T04:56:30;98185.94;;;3.57;89.73
40918;BME280;26644;50.248;19.032;2022-11-15T04:57:57;98189.50;;;3.57;89.42
40918;BME280;26644;50.248;19.032;2022-11-15T04:59:19;98179.22;;;3.59;89.87
40918;BME280;26644;50.248;19.032;2022-11-15T05:00:40;98180.38;;;3.64;89.36
40918;BME280;26644;50.248;19.032;2022-11-15T05:02:01;98169.88;;;3.67;89.62
40918;BME280;26644;50.248;19.032;2022-11-15T05:03:21;98175.66;;;3.71;89.87
40918;BME280;26644;50.248;19.032;2022-11-15T05:05:06;98170.78;;;3.73;89.47
40918;BME280;26644;50.248;19.032;2022-11-15T05:06:27;98168.91;;;3.73;88.97
40918;BME280;26644;50.248;19.032;2022-11-15T05:07:47;98170.78;;;3.73;89.14
40918;BME280;26644;50.248;19.032;2022-11-15T05:09:10;98169.72;;;3.74;88.91
40918;BME280;26644;50.248;19.032;2022-11-15T05:10:32;98163.50;;;3.73;88.82
40918;BME280;26644;50.248;19.032;2022-11-15T05:11:52;98156.53;;;3.66;88.76
40918;BME280;26644;50.248;19.032;2022-11-15T05:13:13;98170.13;;;3.66;88.60
40918;BME280;26644;50.248;19.032;2022-11-15T05:14:34;98162.44;;;3.63;88.46
40918;BME280;26644;50.248;19.032;2022-11-15T05:15:55;98157.25;;;3.61;88.49
40918;BME280;26644;50.248;19.032;2022-11-15T05:17:15;98150.19;;;3.60;88.72
40918;BME280;26644;50.248;19.032;2022-11-15T05:18:36;98155.63;;;3.60;88.64
40918;BME280;26644;50.248;19.032;2022-11-15T05:19:56;98151.50;;;3.57;88.64
40918;BME280;26644;50.248;19.032;2022-11-15T05:21:17;98152.56;;;3.56;88.68
40918;BME280;26644;50.248;19.032;2022-11-15T05:22:39;98160.69;;;3.56;88.55
40918;BME280;26644;50.248;19.032;2022-11-15T05:24:01;98156.94;;;3.57;88.29
40918;BME280;26644;50.248;19.032;2022-11-15T05:25:23;98158.56;;;3.58;88.75
40918;BME280;26644;50.248;19.032;2022-11-15T05:26:44;98151.00;;;3.60;88.53
40918;BME280;26644;50.248;19.032;2022-11-15T05:28:05;98156.78;;;3.64;88.17
40918;BME280;26644;50.248;19.032;2022-11-15T05:29:26;98153.22;;;3.64;88.30
40918;BME280;26644;50.248;19.032;2022-11-15T05:30:47;98150.50;;;3.64;88.27
40918;BME280;26644;50.248;19.032;2022-11-15T05:32:08;98122.50;;;3.46;87.54
40918;BME280;26644;50.248;19.032;2022-11-15T05:33:34;98144.53;;;3.61;87.76
40918;BME280;26644;50.248;19.032;2022-11-15T05:34:55;98133.91;;;3.60;87.45
40918;BME280;26644;50.248;19.032;2022-11-15T05:36:25;98143.69;;;3.61;87.69
40918;BME280;26644;50.248;19.032;2022-11-15T05:37:49;98131.50;;;3.64;87.69
40918;BME280;26644;50.248;19.032;2022-11-15T05:39:10;98130.09;;;3.61;87.59
40918;BME280;26644;50.248;19.032;2022-11-15T05:40:34;98128.81;;;3.64;87.25
40918;BME280;26644;50.248;19.032;2022-11-15T05:42:00;98129.63;;;3.64;87.43
40918;BME280;26644;50.248;19.032;2022-11-15T05:43:26;98134.81;;;3.66;87.58
40918;BME280;26644;50.248;19.032;2022-11-15T05:44:49;98131.06;;;3.67;87.51
40918;BME280;26644;50.248;19.032;2022-11-15T05:46:10;98129.41;;;3.66;87.23
40918;BME280;26644;50.248;19.032;2022-11-15T05:47:35;98126.09;;;3.64;87.11
40918;BME280;26644;50.248;19.032;2022-11-15T05:48:59;98125.84;;;3.65;87.10
40918;BME280;26644;50.248;19.032;2022-11-15T05:50:20;98129.63;;;3.64;86.94
40918;BME280;26644;50.248;19.032;2022-11-15T05:51:45;98127.13;;;3.63;87.04
40918;BME280;26644;50.248;19.032;2022-11-15T05:53:11;98129.41;;;3.66;87.03
40918;BME280;26644;50.248;19.032;2022-11-15T05:54:35;98126.69;;;3.66;86.77
40918;BME280;26644;50.248;19.032;2022-11-15T05:55:58;98116.78;;;3.59;86.93
40918;BME280;26644;50.248;19.032;2022-11-15T05:57:19;98129.41;;;3.66;87.16
40918;BME280;26644;50.248;19.032;2022-11-15T05:58:42;98130.22;;;3.66;86.90
40918;BME280;26644;50.248;19.032;2022-11-15T06:00:04;98127.75;;;3.65;86.63
40918;BME280;26644;50.248;19.032;2022-11-15T06:01:27;98130.47;;;3.65;87.23
40918;BME280;26644;50.248;19.032;2022-11-15T06:02:47;98128.56;;;3.65;86.70
40918;BME280;26644;50.248;19.032;2022-11-15T06:04:09;98126.94;;;3.64;86.85
40918;BME280;26644;50.248;19.032;2022-11-15T06:05:30;98115.97;;;3.59;86.68
40918;BME280;26644;50.248;19.032;2022-11-15T06:06:50;98122.69;;;3.56;86.79
40918;BME280;26644;50.248;19.032;2022-11-15T06:08:11;98094.81;;;3.32;86.86
40918;BME280;26644;50.248;19.032;2022-11-15T06:09:33;98125.88;;;3.53;87.26
40918;BME280;26644;50.248;19.032;2022-11-15T06:10:54;98123.91;;;3.49;86.91
40918;BME280;26644;50.248;19.032;2022-11-15T06:12:15;98116.81;;;3.48;86.92
40918;BME280;26644;50.248;19.032;2022-11-15T06:13:36;98124.59;;;3.44;87.10
40918;BME280;26644;50.248;19.032;2022-11-15T06:14:58;98121.56;;;3.40;86.63
40918;BME280;26644;50.248;19.032;2022-11-15T06:16:19;98125.94;;;3.41;86.76
40918;BME280;26644;50.248;19.032;2022-11-15T06:17:39;98125.34;;;3.39;87.23
40918;BME280;26644;50.248;19.032;2022-11-15T06:19:00;98124.53;;;3.39;87.22
40918;BME280;26644;50.248;19.032;2022-11-15T06:20:21;98120.63;;;3.35;87.41
40918;BME280;26644;50.248;19.032;2022-11-15T06:21:41;98122.88;;;3.38;87.55
40918;BME280;26644;50.248;19.032;2022-11-15T06:23:03;98120.41;;;3.36;87.62
40918;BME280;26644;50.248;19.032;2022-11-15T06:24:24;98134.09;;;3.41;87.54
40918;BME280;26644;50.248;19.032;2022-11-15T06:25:46;98129.47;;;3.42;87.81
40918;BME280;26644;50.248;19.032;2022-11-15T06:27:06;98135.56;;;3.49;88.21
40918;BME280;26644;50.248;19.032;2022-11-15T06:28:30;98136.16;;;3.51;87.96
40918;BME280;26644;50.248;19.032;2022-11-15T06:29:52;98133.81;;;3.55;88.03
40918;BME280;26644;50.248;19.032;2022-11-15T06:31:13;98135.78;;;3.59;88.12
40918;BME280;26644;50.248;19.032;2022-11-15T06:32:34;98130.22;;;3.66;88.50
40918;BME280;26644;50.248;19.032;2022-11-15T06:33:55;98138.69;;;3.70;87.89
40918;BME280;26644;50.248;19.032;2022-11-15T06:35:16;98139.06;;;3.73;88.29
40918;BME280;26644;50.248;19.032;2022-11-15T06:36:38;98131.72;;;3.74;88.21
40918;BME280;26644;50.248;19.032;2022-11-15T06:38:03;98121.66;;;3.74;88.06
40918;BME280;26644;50.248;19.032;2022-11-15T06:39:24;98134.88;;;3.83;87.59
40918;BME280;26644;50.248;19.032;2022-11-15T06:40:45;98142.13;;;3.94;87.63
40918;BME280;26644;50.248;19.032;2022-11-15T06:42:08;98144.69;;;4.01;87.64
40918;BME280;26644;50.248;19.032;2022-11-15T06:43:31;98146.94;;;4.04;87.74
40918;BME280;26644;50.248;19.032;2022-11-15T06:44:52;98153.53;;;4.08;87.11
40918;BME280;26644;50.248;19.032;2022-11-15T06:46:13;98117.34;;;3.90;87.21
40918;BME280;26644;50.248;19.032;2022-11-15T06:47:35;98151.22;;;4.17;87.08
40918;BME280;26644;50.248;19.032;2022-11-15T06:48:56;98155.94;;;4.21;87.03
40918;BME280;26644;50.248;19.032;2022-11-15T06:50:17;98150.44;;;4.16;86.90
40918;BME280;26644;50.248;19.032;2022-11-15T06:51:37;98153.47;;;4.20;86.65
40918;BME280;26644;50.248;19.032;2022-11-15T06:53:03;98160.97;;;4.30;86.22
40918;BME280;26644;50.248;19.032;2022-11-15T06:54:24;98155.63;;;4.35;86.72
40918;BME280;26644;50.248;19.032;2022-11-15T06:55:45;98154.56;;;4.36;86.23
40918;BME280;26644;50.248;19.032;2022-11-15T06:57:06;98158.19;;;4.41;86.77
40918;BME280;26644;50.248;19.032;2022-11-15T06:58:30;98155.97;;;4.38;86.44
40918;BME280;26644;50.248;19.032;2022-11-15T06:59:51;98168.31;;;4.46;85.66
40918;BME280;26644;50.248;19.032;2022-11-15T07:01:12;98156.38;;;4.47;85.85
40918;BME280;26644;50.248;19.032;2022-11-15T07:02:33;98098.06;;;4.04;86.14
40918;BME280;26644;50.248;19.032;2022-11-15T07:03:54;98160.84;;;4.53;85.86
40918;BME280;26644;50.248;19.032;2022-11-15T07:05:15;98164.88;;;4.51;85.31
40918;BME280;26644;50.248;19.032;2022-11-15T07:06:36;98168.28;;;4.58;85.17
40918;BME280;26644;50.248;19.032;2022-11-15T07:07:58;98152.94;;;4.52;85.26
40918;BME280;26644;50.248;19.032;2022-11-15T07:09:20;98163.16;;;4.61;84.78
40918;BME280;26644;50.248;19.032;2022-11-15T07:10:42;98151.63;;;4.54;84.98
40918;BME280;26644;50.248;19.032;2022-11-15T07:12:03;98159.72;;;4.66;85.12
40918;BME280;26644;50.248;19.032;2022-11-15T07:13:24;98148.09;;;4.71;85.00
40918;BME280;26644;50.248;19.032;2022-11-15T07:14:48;98160.97;;;4.75;84.83
40918;BME280;26644;50.248;19.032;2022-11-15T07:16:10;98150.88;;;4.76;85.01
40918;BME280;26644;50.248;19.032;2022-11-15T07:17:31;98158.06;;;4.82;85.15
40918;BME280;26644;50.248;19.032;2022-11-15T07:18:51;98159.13;;;4.81;84.34
40918;BME280;26644;50.248;19.032;2022-11-15T07:20:13;98132.44;;;4.61;84.27
40918;BME280;26644;50.248;19.032;2022-11-15T07:21:35;98163.97;;;4.79;84.68
40918;BME280;26644;50.248;19.032;2022-11-15T07:22:59;98159.94;;;4.82;84.67
40918;BME280;26644;50.248;19.032;2022-11-15T07:24:21;98162.75;;;4.87;85.03
40918;BME280;26644;50.248;19.032;2022-11-15T07:25:41;98141.00;;;4.70;84.20
40918;BME280;26644;50.248;19.032;2022-11-15T07:27:02;98158.72;;;4.89;83.88
40918;BME280;26644;50.248;19.032;2022-11-15T07:28:23;98154.06;;;4.90;83.99
40918;BME280;26644;50.248;19.032;2022-11-15T07:29:45;98150.81;;;4.88;83.97
40918;BME280;26644;50.248;19.032;2022-11-15T07:31:08;98150.53;;;4.89;84.03